createdAt,value
2023-04-26T00:14:06.134Z,6.90
2023-04-26T00:16:33.283Z,15.10
2023-04-26T00:19:00.758Z,13.20
2023-04-26T00:21:49.343Z,11.70
2023-04-26T00:24:19.050Z,10.20
2023-04-26T00:26:53.250Z,8.40
2023-04-26T00:29:19.972Z,13.00
2023-04-26T00:31:47.824Z,13.80
2023-04-26T00:34:18.580Z,17.10
2023-04-26T00:36:47.231Z,13.60
2023-04-26T00:39:18.191Z,9.70
2023-04-26T00:41:58.820Z,11.30
2023-04-26T00:44:25.713Z,16.50
2023-04-26T00:46:53.320Z,10.20
2023-04-26T00:49:23.875Z,13.10
2023-04-26T00:51:52.024Z,10.40
2023-04-26T00:54:20.231Z,13.50
2023-04-26T00:56:47.412Z,17.00
2023-04-26T00:59:16.204Z,16.80
2023-04-26T01:01:44.303Z,10.60
2023-04-26T01:04:20.959Z,12.60
2023-04-26T01:06:48.112Z,11.50
2023-04-26T01:57:13.175Z,14.40
2023-04-26T01:59:39.954Z,14.00
2023-04-26T02:02:09.430Z,11.70
2023-04-26T02:04:38.358Z,11.60
2023-04-26T02:07:07.796Z,13.50
2023-04-26T02:09:34.490Z,9.70
2023-04-26T02:12:02.300Z,15.30
2023-04-26T02:14:31.628Z,10.20
2023-04-26T02:16:58.131Z,15.70
2023-04-26T02:19:30.325Z,15.10
2023-04-26T02:21:57.737Z,13.90
2023-04-26T02:24:25.010Z,18.80
2023-04-26T02:26:54.723Z,11.00
2023-04-26T02:29:29.774Z,11.10
2023-04-26T02:32:09.128Z,11.00
2023-04-26T02:34:36.269Z,13.40
2023-04-26T02:37:03.879Z,16.50
2023-04-26T02:39:31.012Z,15.50
2023-04-26T02:41:57.929Z,16.60
2023-04-26T02:44:25.378Z,10.40
2023-04-26T02:46:52.199Z,15.40
2023-04-26T02:49:19.216Z,10.70
2023-04-26T02:51:46.780Z,14.60
2023-04-26T02:54:14.041Z,12.90
2023-04-26T02:56:40.787Z,12.60
2023-04-26T02:59:08.074Z,17.90
2023-04-26T03:01:35.039Z,11.00
2023-04-26T03:04:02.542Z,14.50
2023-04-26T03:06:29.666Z,13.90
2023-04-26T03:08:56.526Z,13.40
2023-04-26T03:11:26.565Z,18.50
2023-04-26T03:14:23.484Z,14.70
2023-04-26T03:16:53.089Z,13.40
2023-04-26T03:19:20.011Z,15.90
2023-04-26T03:21:47.596Z,15.40
2023-04-26T03:24:20.231Z,16.90
2023-04-26T03:26:47.229Z,15.60
2023-04-26T03:29:17.917Z,19.00
2023-04-26T03:31:46.808Z,16.90
2023-04-26T03:34:13.728Z,13.80
2023-04-26T03:36:40.486Z,15.10
2023-04-26T03:39:11.895Z,15.80
2023-04-26T03:41:39.912Z,15.00
2023-04-26T03:44:07.024Z,21.30
2023-04-26T03:46:34.660Z,16.60
2023-04-26T03:49:03.833Z,14.00
2023-04-26T03:51:33.007Z,17.90
2023-04-26T03:54:02.032Z,15.40
2023-04-26T03:56:30.834Z,20.70
2023-04-26T03:58:57.332Z,19.30
2023-04-26T04:01:24.211Z,14.50
2023-04-26T04:03:51.149Z,16.80
2023-04-26T04:06:21.297Z,15.70
2023-04-26T04:08:51.172Z,17.40
2023-04-26T04:11:18.316Z,23.20
2023-04-26T04:13:47.183Z,17.20
2023-04-26T04:16:16.473Z,18.90
2023-04-26T04:18:44.989Z,22.90
2023-04-26T04:21:14.361Z,27.20
2023-04-26T04:23:45.154Z,23.00
2023-04-26T04:26:12.626Z,25.40
2023-04-26T04:28:40.844Z,25.50
2023-04-26T04:31:10.627Z,17.00
2023-04-26T04:33:39.996Z,21.80
2023-04-26T04:36:10.049Z,21.10
2023-04-26T04:38:41.429Z,18.80
2023-04-26T04:41:09.648Z,16.20
2023-04-26T04:43:41.258Z,17.90
2023-04-26T04:46:12.890Z,18.70
2023-04-26T04:48:44.696Z,19.80
2023-04-26T04:51:11.515Z,15.90
2023-04-26T04:53:40.411Z,19.20
2023-04-26T04:56:21.117Z,16.30
2023-04-26T04:58:50.423Z,15.30
2023-04-26T05:01:23.453Z,15.40
2023-04-26T05:03:56.963Z,13.30
2023-04-26T05:06:30.604Z,15.50
2023-04-26T05:09:00.717Z,13.10
2023-04-26T05:11:30.830Z,11.40
2023-04-26T05:13:58.955Z,14.10
2023-04-26T05:16:25.686Z,15.30
2023-04-26T05:18:52.871Z,13.30
2023-04-26T05:21:27.395Z,14.00
2023-04-26T05:24:02.461Z,12.50
2023-04-26T05:26:29.656Z,9.60
2023-04-26T05:32:05.113Z,11.70
2023-04-26T05:34:58.306Z,10.90
2023-04-26T05:37:24.802Z,16.10
2023-04-26T05:39:53.853Z,19.00
2023-04-26T05:42:20.724Z,11.20
2023-04-26T05:44:49.675Z,12.20
2023-04-26T05:47:19.711Z,14.80
2023-04-26T05:49:53.957Z,8.90
2023-04-26T05:52:22.806Z,9.80
2023-04-26T05:54:49.953Z,11.30
2023-04-26T05:57:19.501Z,6.50
2023-04-26T05:59:47.400Z,9.00
2023-04-26T06:02:14.146Z,8.50
2023-04-26T06:04:43.235Z,11.20
2023-04-26T06:07:15.433Z,13.50
2023-04-26T06:09:48.881Z,8.80
2023-04-26T06:12:20.132Z,10.20
2023-04-26T06:14:49.122Z,9.90
2023-04-26T06:17:21.159Z,7.60
2023-04-26T06:19:48.751Z,9.00
2023-04-26T06:22:15.407Z,8.20
2023-04-26T06:24:46.773Z,7.40
2023-04-26T06:27:14.201Z,12.60
2023-04-26T06:29:46.283Z,12.40
2023-04-26T06:32:15.622Z,10.00
2023-04-26T06:34:45.337Z,9.20
2023-04-26T06:37:11.909Z,11.30
2023-04-26T06:39:40.247Z,7.70
2023-04-26T06:42:09.397Z,8.00
2023-04-26T06:45:08.800Z,13.10
2023-04-26T06:47:35.829Z,11.30
2023-04-26T06:50:04.155Z,8.50
2023-04-26T06:52:33.332Z,5.10
2023-04-26T06:55:03.853Z,9.90
2023-04-26T06:57:32.539Z,6.70
2023-04-26T07:00:01.366Z,11.60
2023-04-26T07:02:30.832Z,9.00
2023-04-26T07:04:57.866Z,12.40
2023-04-26T07:07:25.043Z,5.90
2023-04-26T07:09:52.460Z,8.80
2023-04-26T07:12:21.380Z,7.50
2023-04-26T07:14:48.223Z,9.70
2023-04-26T07:17:21.714Z,7.40
2023-04-26T07:19:50.877Z,10.20
2023-04-26T07:22:22.422Z,8.80
2023-04-26T07:24:53.881Z,11.60
2023-04-26T07:27:25.610Z,16.30
2023-04-26T07:29:58.086Z,8.00
2023-04-26T07:32:27.532Z,9.30
2023-04-26T07:34:56.636Z,6.10
2023-04-26T07:37:23.509Z,6.70
2023-04-26T07:39:52.524Z,10.20
2023-04-26T07:42:23.650Z,6.30
2023-04-26T07:44:50.112Z,9.50
2023-04-26T07:47:19.950Z,8.50
2023-04-26T07:49:49.243Z,8.50
2023-04-26T07:52:20.274Z,7.70
2023-04-26T07:54:49.667Z,9.30
2023-04-26T07:57:18.847Z,6.70
2023-04-26T07:59:50.172Z,5.90
2023-04-26T08:02:21.645Z,7.70
2023-04-26T08:07:18.890Z,7.80
2023-04-26T08:09:45.532Z,6.00
2023-04-26T08:12:14.705Z,6.40
2023-04-26T08:14:46.581Z,10.10
2023-04-26T08:17:15.602Z,8.50
2023-04-26T08:19:46.873Z,9.40
2023-04-26T08:22:13.321Z,7.70
2023-04-26T08:24:47.140Z,9.50
2023-04-26T08:27:17.093Z,4.20
2023-04-26T08:29:48.308Z,10.00
2023-04-26T08:32:14.933Z,6.40
2023-04-26T08:34:46.561Z,8.10
2023-04-26T08:37:13.379Z,5.60
2023-04-26T08:39:40.966Z,7.10
2023-04-26T08:42:15.651Z,7.60
2023-04-26T08:44:43.736Z,6.00
2023-04-26T08:47:17.485Z,7.40
2023-04-26T08:49:53.108Z,4.70
2023-04-26T08:52:22.732Z,7.70
2023-04-26T08:54:53.285Z,5.00
2023-04-26T08:57:32.048Z,4.90
2023-04-26T09:00:01.212Z,8.90
2023-04-26T09:02:28.491Z,7.50
2023-04-26T09:04:55.655Z,5.30
2023-04-26T09:07:31.561Z,9.40
2023-04-26T09:10:03.741Z,5.30
2023-04-26T09:12:38.852Z,9.90
2023-04-26T09:17:40.929Z,6.30
2023-04-26T09:20:26.814Z,7.80
2023-04-26T09:23:10.572Z,5.50
2023-04-26T09:25:37.175Z,7.80
2023-04-26T09:28:18.165Z,4.60
2023-04-26T09:30:46.786Z,8.20
2023-04-26T09:33:16.337Z,7.90
2023-04-26T09:35:43.866Z,3.40
2023-04-26T09:38:16.275Z,10.30
2023-04-26T09:40:48.044Z,6.70
2023-04-26T09:43:21.438Z,7.50
2023-04-26T09:45:53.746Z,10.00
2023-04-26T09:48:29.861Z,4.90
2023-04-26T09:50:58.535Z,5.40
2023-04-26T09:53:39.238Z,8.60
2023-04-26T09:56:13.785Z,7.60
2023-04-26T09:58:45.745Z,5.60
2023-04-26T10:01:15.645Z,5.70
2023-04-26T10:03:43.614Z,5.80
2023-04-26T10:06:13.160Z,6.40
2023-04-26T10:08:42.070Z,6.90
2023-04-26T10:11:10.828Z,7.60
2023-04-26T10:13:40.839Z,6.90
2023-04-26T10:16:10.429Z,11.30
2023-04-26T10:18:39.910Z,7.70
2023-04-26T10:21:25.341Z,4.70
2023-04-26T10:23:54.193Z,11.90
2023-04-26T10:26:59.006Z,7.00
2023-04-26T10:29:46.664Z,8.90
2023-04-26T10:32:17.775Z,6.40
2023-04-26T10:34:44.325Z,7.30
2023-04-26T10:37:13.179Z,6.10
2023-04-26T10:39:45.172Z,10.10
2023-04-26T10:42:30.129Z,5.40
2023-04-26T10:44:57.746Z,4.30
2023-04-26T10:47:38.343Z,8.60
2023-04-26T10:50:10.388Z,6.10
2023-04-26T10:53:04.732Z,10.10
2023-04-26T10:55:43.836Z,8.20
2023-04-26T10:58:40.319Z,7.70
2023-04-26T11:01:20.420Z,5.40
2023-04-26T11:04:01.092Z,8.20
2023-04-26T11:06:52.386Z,5.80
2023-04-26T11:09:48.533Z,7.30
2023-04-26T11:12:23.792Z,4.10
2023-04-26T11:14:53.590Z,4.70
2023-04-26T11:17:22.727Z,2.40
2023-04-26T11:19:53.419Z,4.00
2023-04-26T11:22:22.435Z,4.90
2023-04-26T11:24:52.162Z,8.30
2023-04-26T11:27:27.061Z,10.00
2023-04-26T11:29:54.175Z,5.50
2023-04-26T11:32:25.833Z,6.00
2023-04-26T11:34:54.963Z,9.70
2023-04-26T11:37:21.612Z,6.00
2023-04-26T11:39:50.913Z,7.50
2023-04-26T11:42:17.704Z,2.70
2023-04-26T11:44:51.210Z,12.20
2023-04-26T11:47:22.183Z,4.60
2023-04-26T11:49:53.726Z,6.60
2023-04-26T11:52:20.252Z,9.20
2023-04-26T11:54:49.972Z,6.40
2023-04-26T11:59:51.451Z,4.60
2023-04-26T12:02:20.690Z,10.20
2023-04-26T12:05:03.687Z,5.80
2023-04-26T12:07:37.210Z,12.10
2023-04-26T12:10:36.817Z,5.40
2023-04-26T12:13:03.665Z,7.20
2023-04-26T12:15:34.493Z,4.30
2023-04-26T12:18:05.967Z,8.90
2023-04-26T12:20:36.501Z,7.90
2023-04-26T12:23:10.827Z,8.50
2023-04-26T12:25:42.149Z,5.50
2023-04-26T12:28:13.837Z,4.20
2023-04-26T12:30:42.949Z,6.20
2023-04-26T12:33:17.045Z,5.50
2023-04-26T12:35:44.354Z,9.90
2023-04-26T12:38:15.708Z,6.00
2023-04-26T12:40:46.164Z,7.30
2023-04-26T12:43:18.836Z,10.40
2023-04-26T12:45:50.065Z,7.60
2023-04-26T12:48:18.903Z,6.80
2023-04-26T12:50:45.510Z,8.40
2023-04-26T12:53:14.800Z,5.90
2023-04-26T12:55:44.143Z,5.60
2023-04-26T12:58:10.834Z,7.80
2023-04-26T13:00:37.641Z,3.30
2023-04-26T13:03:06.965Z,6.10
2023-04-26T13:05:36.124Z,8.90
2023-04-26T13:08:02.706Z,5.10
2023-04-26T14:22:24.137Z,8.50
2023-04-26T14:24:54.733Z,7.40
2023-04-26T14:27:21.873Z,7.50
2023-04-26T14:29:51.128Z,5.40
2023-04-26T14:32:26.873Z,6.10
2023-04-26T14:34:53.925Z,4.50
2023-04-26T14:37:24.763Z,3.60
2023-04-26T14:39:53.850Z,9.30
2023-04-26T14:42:20.452Z,4.10
2023-04-26T14:44:47.335Z,7.90
2023-04-26T14:47:16.361Z,6.40
2023-04-26T14:49:45.574Z,7.40
2023-04-26T14:52:16.928Z,7.20
2023-04-26T14:54:43.713Z,5.20
2023-04-26T14:57:10.138Z,7.30
2023-04-26T14:59:36.961Z,6.00
2023-04-26T15:02:04.259Z,11.10
2023-04-26T15:04:36.962Z,8.50
2023-04-26T15:07:06.260Z,9.00
2023-04-26T15:09:32.924Z,4.70
2023-04-26T15:11:59.458Z,7.80
2023-04-26T15:14:26.228Z,8.60
2023-04-26T15:16:57.757Z,9.90
2023-04-26T15:19:28.912Z,9.60
2023-04-26T15:21:58.424Z,6.70
2023-04-26T15:24:26.999Z,7.90
2023-04-26T15:26:59.279Z,9.60
2023-04-26T15:29:27.023Z,7.00
2023-04-26T15:31:53.650Z,7.10
2023-04-26T15:34:21.984Z,8.30
2023-04-26T15:36:48.368Z,8.30
2023-04-26T15:39:14.776Z,7.00
2023-04-26T15:41:44.624Z,7.60
2023-04-26T15:44:13.377Z,5.90
2023-04-26T15:46:40.010Z,10.20
2023-04-26T15:49:06.903Z,11.20
2023-04-26T15:51:38.204Z,7.20
2023-04-26T15:54:04.964Z,8.00
2023-04-26T15:56:33.735Z,8.40
2023-04-26T15:59:05.118Z,245.50
2023-04-26T16:01:37.340Z,173.90
2023-04-26T16:04:04.101Z,373.70
2023-04-26T16:06:37.847Z,268.30
2023-04-26T16:09:17.247Z,537.20
2023-04-26T16:11:52.540Z,888.70
2023-04-26T16:14:19.060Z,467.70
2023-04-26T16:16:47.869Z,301.40
2023-04-26T16:19:16.732Z,180.40
2023-04-26T16:21:43.710Z,228.10
2023-04-26T16:24:11.691Z,76.30
2023-04-26T16:26:50.658Z,96.20
2023-04-26T16:29:22.069Z,20.40
2023-04-26T16:31:53.147Z,34.70
2023-04-26T16:34:23.254Z,61.10
2023-04-26T16:37:04.776Z,10.60
2023-04-26T16:39:31.912Z,11.20
2023-04-26T16:41:59.273Z,7.10
2023-04-26T16:44:27.967Z,26.00
2023-04-26T16:46:55.245Z,10.20
2023-04-26T16:49:26.699Z,10.70
2023-04-26T16:51:58.180Z,8.40
2023-04-26T16:54:30.445Z,5.90
2023-04-26T16:56:57.663Z,10.80
2023-04-26T16:59:26.950Z,8.60
2023-04-26T17:01:54.032Z,7.50
2023-04-26T17:04:23.487Z,10.20
2023-04-26T17:06:54.308Z,8.10
2023-04-26T17:09:21.770Z,9.60
2023-04-26T17:11:50.547Z,6.50
2023-04-26T17:14:20.878Z,9.00
2023-04-26T17:17:20.098Z,8.10
2023-04-26T17:19:51.797Z,8.30
2023-04-26T17:22:20.854Z,11.30
2023-04-26T17:24:47.392Z,15.20
2023-04-26T17:27:13.967Z,8.80
2023-04-26T17:29:43.566Z,13.00
2023-04-26T17:32:12.833Z,9.80
2023-04-26T17:34:42.545Z,11.90
2023-04-26T17:37:11.726Z,15.70
2023-04-26T17:39:38.139Z,11.70
2023-04-26T17:42:04.753Z,8.50
2023-04-26T17:44:32.481Z,11.30
2023-04-26T17:47:01.610Z,8.40
2023-04-26T17:49:28.143Z,12.40
2023-04-26T17:51:54.556Z,12.60
2023-04-26T17:54:23.856Z,10.10
2023-04-26T17:56:52.820Z,9.40
2023-04-26T17:59:19.557Z,10.80
2023-04-26T18:01:48.103Z,12.40
2023-04-26T18:04:15.232Z,12.20
2023-04-26T18:06:44.745Z,12.90
2023-04-26T18:09:13.887Z,13.70
2023-04-26T18:11:47.090Z,9.40
2023-04-26T18:14:14.311Z,13.50
2023-04-26T18:16:41.497Z,11.80
2023-04-26T18:19:08.783Z,13.30
2023-04-26T18:21:35.276Z,17.10
2023-04-26T18:24:01.946Z,18.80
2023-04-26T18:26:31.122Z,15.40
2023-04-26T18:29:00.519Z,16.60
2023-04-26T18:31:27.313Z,16.30
2023-04-26T18:33:56.232Z,13.60
2023-04-26T18:36:26.440Z,15.70
2023-04-26T18:38:55.903Z,13.70
2023-04-26T18:41:24.863Z,14.20
2023-04-26T18:43:53.079Z,17.10
2023-04-26T18:46:22.121Z,16.40
2023-04-26T18:48:48.835Z,17.30
2023-04-26T18:51:15.418Z,15.10
2023-04-26T18:53:47.598Z,15.40
2023-04-26T18:56:16.401Z,13.80
2023-04-26T18:58:45.346Z,11.40
2023-04-26T19:01:14.487Z,15.80
2023-04-26T19:03:42.021Z,12.90
2023-04-26T19:06:14.263Z,15.10
2023-04-26T19:08:41.395Z,18.60
2023-04-26T19:11:11.729Z,17.30
2023-04-26T19:13:40.947Z,21.80
2023-04-26T19:16:11.153Z,19.70
2023-04-26T19:18:39.909Z,19.10
2023-04-26T19:21:16.736Z,20.20
2023-04-26T19:23:44.767Z,21.70
2023-04-26T19:26:15.186Z,21.50
2023-04-26T19:28:46.643Z,25.20
2023-04-26T19:31:15.786Z,26.40
2023-04-26T19:33:47.552Z,25.70
2023-04-26T19:36:16.528Z,18.00
2023-04-26T19:38:47.703Z,20.30
2023-04-26T19:41:16.964Z,18.80
2023-04-26T19:43:45.916Z,18.60
2023-04-26T19:46:17.281Z,17.60
2023-04-26T19:48:43.639Z,17.80
2023-04-26T19:51:20.724Z,14.20
2023-04-26T19:53:49.973Z,22.20
2023-04-26T19:56:22.545Z,19.40
2023-04-26T19:58:53.906Z,23.70
2023-04-26T20:01:23.172Z,19.60
2023-04-26T20:03:54.925Z,20.30
2023-04-26T20:06:24.184Z,22.90
2023-04-26T20:08:50.728Z,25.90
2023-04-26T20:11:19.403Z,26.50
2023-04-26T20:13:48.451Z,22.70
2023-04-26T20:16:18.253Z,22.50
2023-04-26T20:18:44.951Z,22.80
2023-04-26T20:21:13.955Z,23.80
2023-04-26T20:23:40.469Z,20.60
2023-04-26T20:26:07.314Z,22.20
2023-04-26T20:28:33.975Z,19.90
2023-04-26T20:31:00.416Z,24.30
2023-04-26T20:33:27.377Z,23.10
2023-04-26T20:35:58.983Z,21.90
2023-04-26T20:38:25.638Z,17.20
2023-04-26T20:40:52.692Z,17.80
2023-04-26T20:43:22.050Z,16.20
2023-04-26T20:45:50.404Z,13.10
2023-04-26T20:48:19.297Z,12.70
2023-04-26T20:50:48.482Z,14.90
2023-04-26T20:53:17.735Z,17.10
2023-04-26T20:55:44.372Z,15.40
2023-04-26T20:58:14.667Z,10.60
2023-04-26T21:00:44.785Z,12.50
2023-04-26T21:03:11.902Z,12.90
2023-04-26T21:05:43.564Z,12.00
2023-04-26T21:08:10.392Z,16.30
2023-04-26T21:10:41.688Z,14.20
2023-04-26T21:13:11.204Z,11.80
2023-04-26T21:15:40.574Z,13.00
2023-04-26T21:18:10.095Z,17.50
2023-04-26T21:20:40.075Z,13.00
2023-04-26T21:23:11.644Z,16.90
2023-04-26T21:25:48.926Z,16.40
2023-04-26T21:28:18.514Z,13.80
2023-04-26T21:30:47.443Z,16.00
2023-04-26T21:33:16.697Z,12.80
2023-04-26T21:35:45.836Z,14.20
2023-04-26T21:38:17.030Z,17.30
2023-04-26T21:40:46.654Z,15.30
2023-04-26T21:43:19.483Z,19.90
2023-04-26T21:45:46.564Z,12.20
2023-04-26T21:48:13.430Z,19.00
2023-04-26T21:50:42.463Z,17.20
2023-04-26T21:53:11.812Z,13.80
2023-04-26T21:55:43.720Z,13.10
2023-04-26T22:00:41.242Z,16.40
2023-04-26T22:03:08.411Z,16.40
2023-04-26T22:05:41.733Z,16.70
2023-04-26T22:08:08.476Z,16.40
2023-04-26T22:10:37.311Z,15.20
2023-04-26T22:13:08.777Z,18.20
2023-04-26T22:15:41.026Z,15.60
2023-04-26T22:18:10.406Z,17.00
2023-04-26T22:20:39.422Z,18.60
2023-04-26T22:23:07.505Z,16.90
2023-04-26T22:25:39.625Z,13.80
2023-04-26T22:28:06.636Z,22.20
2023-04-26T22:30:35.797Z,25.90
2023-04-26T22:33:09.270Z,19.80
2023-04-26T22:35:36.165Z,22.90
2023-04-26T22:38:03.219Z,18.10
2023-04-26T22:40:31.429Z,20.50
2023-04-26T22:42:58.186Z,18.10
2023-04-26T22:45:27.295Z,24.10
2023-04-26T22:47:53.835Z,18.80
2023-04-26T22:50:23.188Z,19.40
2023-04-26T22:52:50.314Z,17.00
2023-04-26T22:55:17.255Z,18.60
2023-04-26T22:57:44.734Z,19.10
2023-04-26T23:00:13.564Z,19.30
2023-04-26T23:02:40.378Z,23.50
2023-04-26T23:05:10.409Z,18.80
2023-04-26T23:07:43.113Z,21.60
2023-04-26T23:10:12.406Z,22.00
2023-04-26T23:12:40.089Z,19.20
2023-04-26T23:15:09.900Z,20.30
2023-04-26T23:17:37.141Z,21.80
2023-04-26T23:20:16.194Z,22.10
2023-04-26T23:22:45.696Z,21.90
2023-04-26T23:25:14.628Z,23.40
2023-04-26T23:27:41.747Z,22.20
2023-04-26T23:30:08.946Z,20.40
2023-04-26T23:32:35.804Z,22.40
2023-04-26T23:35:05.961Z,21.90
2023-04-26T23:37:33.443Z,20.80
2023-04-26T23:40:04.989Z,26.10
2023-04-26T23:42:34.111Z,17.30
2023-04-26T23:45:03.878Z,25.80
2023-04-26T23:47:32.929Z,25.80
2023-04-26T23:50:01.981Z,22.80
2023-04-26T23:52:28.808Z,20.50
2023-04-26T23:54:58.445Z,25.80
2023-04-26T23:57:27.415Z,23.00
2023-04-26T23:59:54.215Z,26.70
